Time;durP1;ratioP1;P1;durP2;ratioP2;P2;SDS_P1;SDS_P2;PMS_P1;PMS_P2;Temp;Humidity;BMP_temperature;BMP_pressure;BME280_temperature;BME280_humidity;BME280_pressure;Samples;Min_cycle;Max_cycle;Signal;HPM_P1;HPM_P2
2023/03/28 00:01:00;;;;;;;10.40;1.70;;;;;;;3.36;100.00;101136.53;5001790;28;20050;-93
2023/03/28 00:03:28;;;;;;;7.35;1.80;;;;;;;3.44;100.00;101135.69;5014505;28;20403;-93
2023/03/28 00:05:56;;;;;;;7.05;1.90;;;;;;;3.63;100.00;101164.97;5010097;28;20042;-93
2023/03/28 00:08:23;;;;;;;5.50;1.73;;;;;;;3.58;100.00;101167.59;5010062;28;20084;-94
2023/03/28 00:10:50;;;;;;;10.13;2.13;;;;;;;3.52;100.00;101165.84;4993505;28;20058;-93
2023/03/28 00:13:18;;;;;;;12.55;2.70;;;;;;;3.48;100.00;101158.97;4994102;28;20046;-94
2023/03/28 00:15:45;;;;;;;13.60;2.60;;;;;;;3.34;100.00;101155.53;5023449;28;20065;-92
2023/03/28 00:18:13;;;;;;;9.13;2.30;;;;;;;2.73;100.00;101095.19;4998242;28;20055;-92
2023/03/28 00:20:42;;;;;;;9.05;2.72;;;;;;;2.82;100.00;101127.97;4998655;28;20502;-94
2023/03/28 00:23:10;;;;;;;7.07;2.30;;;;;;;2.92;100.00;101172.78;5007332;28;20042;-92
2023/03/28 00:25:40;;;;;;;6.63;2.45;;;;;;;2.96;100.00;101174.53;5007410;28;20200;-93
2023/03/28 00:28:08;;;;;;;7.75;2.10;;;;;;;2.94;100.00;101174.53;5013100;28;20049;-94
2023/03/28 00:30:34;;;;;;;12.60;2.97;;;;;;;2.75;100.00;101165.88;5016160;28;20065;-93
2023/03/28 00:33:03;;;;;;;12.25;2.65;;;;;;;2.81;100.00;101134.84;5013291;28;20037;-93
2023/03/28 00:35:31;;;;;;;13.27;3.08;;;;;;;3.08;100.00;101174.53;5002800;28;20117;-94
2023/03/28 00:37:58;;;;;;;4.80;1.80;;;;;;;2.88;100.00;101133.13;5009729;28;20125;-94
2023/03/28 00:40:25;;;;;;;11.00;2.35;;;;;;;2.85;100.00;101131.41;5004543;28;20057;-94
2023/03/28 00:42:53;;;;;;;8.10;2.20;;;;;;;2.83;100.00;101127.09;5007467;28;20050;-94
2023/03/28 00:45:22;;;;;;;11.45;2.58;;;;;;;2.76;100.00;101121.06;5011907;28;20064;-92
2023/03/28 00:48:00;;;;;;;6.80;1.83;;;;;;;3.10;100.00;101162.47;5012563;28;20046;-94
2023/03/28 00:50:36;;;;;;;6.00;1.60;;;;;;;3.22;100.00;101166.75;4992830;28;20129;-93
2023/03/28 00:53:14;;;;;;;8.05;2.00;;;;;;;3.20;100.00;101163.31;5001925;28;20113;-92
2023/03/28 00:55:46;;;;;;;6.70;1.98;;;;;;;2.81;100.00;101121.06;5011129;28;20050;-93
2023/03/28 00:58:23;;;;;;;6.95;1.77;;;;;;;2.76;100.00;101099.50;5012596;28;20500;-94
2023/03/28 01:00:50;;;;;;;7.82;2.05;;;;;;;2.96;100.00;101144.34;5008898;28;20480;-93
2023/03/28 01:03:18;;;;;;;10.63;3.03;;;;;;;2.71;100.00;101114.16;5019621;28;20412;-93
2023/03/28 01:05:46;;;;;;;10.20;2.30;;;;;;;2.60;100.00;101096.94;5008185;28;20050;-93
2023/03/28 01:08:20;;;;;;;7.47;2.00;;;;;;;2.49;100.00;101069.31;5008436;28;20046;-92
2023/03/28 01:10:48;;;;;;;3.20;1.52;;;;;;;2.69;100.00;101090.88;4997984;28;20049;-92
2023/03/28 01:13:23;;;;;;;9.07;1.85;;;;;;;2.70;100.00;101086.59;5003351;28;20046;-94
2023/03/28 01:15:50;;;;;;;8.48;2.53;;;;;;;2.66;100.00;101091.75;5008928;28;20092;-94
2023/03/28 01:18:21;;;;;;;10.02;2.95;;;;;;;2.85;100.00;101118.47;5003703;28;20082;-93
2023/03/28 01:21:22;;;;;;;9.60;2.53;;;;;;;2.79;100.00;101123.63;5011896;28;20058;-92
2023/03/28 01:24:10;;;;;;;11.55;2.25;;;;;;;2.93;100.00;101110.72;5012210;28;20064;-92
2023/03/28 01:26:56;;;;;;;8.43;2.17;;;;;;;2.84;100.00;101115.88;5008853;28;20047;-93
2023/03/28 01:30:01;;;;;;;10.43;2.20;;;;;;;2.92;100.00;101106.41;5003513;28;20061;-94
2023/03/28 01:32:27;;;;;;;10.10;2.10;;;;;;;2.95;100.00;101097.78;5026790;28;20050;-93
2023/03/28 01:35:13;;;;;;;8.63;2.10;;;;;;;2.98;100.00;101090.88;5012249;28;20430;-93
2023/03/28 01:38:13;;;;;;;10.27;2.20;;;;;;;2.95;100.00;101085.69;5012167;28;20054;-93
2023/03/28 01:40:40;;;;;;;10.63;2.25;;;;;;;3.01;100.00;101093.47;4994976;28;20050;-93
2023/03/28 01:43:25;;;;;;;5.35;1.95;;;;;;;2.93;100.00;101082.25;5011754;28;20068;-93
2023/03/28 01:46:15;;;;;;;7.80;2.30;;;;;;;2.85;100.00;101069.34;5015405;28;20407;-92
2023/03/28 01:49:15;;;;;;;7.22;2.20;;;;;;;2.94;100.00;101076.25;5000204;28;20074;-93
2023/03/28 01:52:00;;;;;;;4.85;1.60;;;;;;;2.67;100.00;101030.53;5029356;28;20089;-93
2023/03/28 01:54:51;;;;;;;6.15;1.75;;;;;;;2.59;100.00;101033.13;5008669;28;20102;-93
2023/03/28 01:57:26;;;;;;;7.50;2.05;;;;;;;2.70;100.00;101064.16;5008313;28;20062;-92
2023/03/28 02:00:23;;;;;;;7.72;2.15;;;;;;;2.79;100.00;101055.53;5007045;28;20046;-93
2023/03/28 02:02:53;;;;;;;5.07;1.60;;;;;;;2.84;100.00;101059.84;5014139;28;20061;-92
2023/03/28 02:05:22;;;;;;;5.65;1.58;;;;;;;2.59;100.00;101012.47;5005296;28;20452;-92
2023/03/28 02:07:50;;;;;;;5.30;1.75;;;;;;;2.73;100.00;101047.81;5012076;28;20050;-92
2023/03/28 02:10:21;;;;;;;4.97;1.60;;;;;;;2.68;100.00;101041.78;4995578;28;20050;-92
2023/03/28 02:12:53;;;;;;;8.02;2.08;;;;;;;2.68;100.00;101057.28;5014332;28;20054;-91
2023/03/28 02:15:22;;;;;;;6.57;2.33;;;;;;;2.65;100.00;101042.63;5012029;28;20046;-92
2023/03/28 02:17:55;;;;;;;6.80;1.70;;;;;;;2.48;100.00;101019.38;4997634;28;20061;-92
2023/03/28 02:20:25;;;;;;;4.18;1.45;;;;;;;2.49;100.00;101027.97;5007569;28;20053;-91
2023/03/28 02:23:00;;;;;;;5.82;1.75;;;;;;;2.59;100.00;101051.25;5014668;28;20046;-91
2023/03/28 02:25:27;;;;;;;6.07;1.60;;;;;;;2.57;100.00;101037.44;5014665;28;20124;-92
2023/03/28 02:28:00;;;;;;;6.15;1.70;;;;;;;2.51;100.00;101031.41;5015876;28;20447;-91
2023/03/28 02:30:27;;;;;;;4.53;1.52;;;;;;;2.37;100.00;101021.91;5010954;28;20046;-92
2023/03/28 02:33:02;;;;;;;5.55;1.90;;;;;;;2.19;100.00;101011.56;5024239;28;20050;-91
2023/03/28 02:36:01;;;;;;;9.80;2.10;;;;;;;1.96;100.00;100986.56;5014236;28;20100;-91
2023/03/28 02:39:01;;;;;;;3.75;1.55;;;;;;;2.03;100.00;100977.13;4990116;28;20057;-91
2023/03/28 02:41:43;;;;;;;3.40;1.40;;;;;;;2.27;100.00;101015.03;5007515;28;20054;-92
2023/03/28 02:44:09;;;;;;;4.05;1.38;;;;;;;2.31;100.00;101009.00;5005058;28;20057;-91
2023/03/28 02:46:58;;;;;;;6.32;1.75;;;;;;;2.26;100.00;101001.25;5017321;28;20489;-91
2023/03/28 02:49:45;;;;;;;6.40;1.88;;;;;;;2.17;100.00;100997.81;5010937;28;20069;-91
2023/03/28 02:52:50;;;;;;;4.10;1.52;;;;;;;2.16;100.00;100996.94;5010257;28;20050;-90
2023/03/28 02:55:53;;;;;;;4.40;1.60;;;;;;;2.16;100.00;100986.63;5025942;28;20050;-91
2023/03/28 02:58:39;;;;;;;4.80;1.80;;;;;;;1.64;100.00;100911.63;5008658;28;20056;-92
2023/03/28 03:01:06;;;;;;;2.95;1.48;;;;;;;1.89;100.00;100965.06;4994518;28;20054;-92
2023/03/28 03:03:35;;;;;;;3.72;1.63;;;;;;;1.93;100.00;100967.63;4995678;28;20056;-92
2023/03/28 03:06:05;;;;;;;3.75;1.35;;;;;;;1.84;100.00;100958.13;5029612;28;20060;-92
2023/03/28 03:08:32;;;;;;;6.95;1.60;;;;;;;1.77;100.00;100964.16;5002479;28;20538;-92
2023/03/28 03:10:59;;;;;;;4.13;1.52;;;;;;;1.69;100.00;100966.72;5001583;28;20065;-92
2023/03/28 03:13:26;;;;;;;4.28;1.52;;;;;;;1.54;100.00;100928.84;4998242;28;20047;-92
2023/03/28 03:15:53;;;;;;;6.05;1.80;;;;;;;1.37;100.00;100909.88;5008434;28;20049;-92
2023/03/28 03:18:20;;;;;;;6.53;1.80;;;;;;;1.26;100.00;100905.53;5010191;28;20056;-92
2023/03/28 03:20:49;;;;;;;8.25;2.28;;;;;;;1.48;100.00;100929.66;5020318;28;20065;-93
2023/03/28 03:23:15;;;;;;;4.40;1.65;;;;;;;1.18;100.00;100880.56;5013591;28;20115;-92
2023/03/28 03:25:44;;;;;;;5.93;1.50;;;;;;;1.44;100.00;100943.41;5000618;28;20050;-92
2023/03/28 03:28:11;;;;;;;4.72;1.63;;;;;;;1.54;100.00;100949.50;5007872;28;20050;-92
2023/03/28 03:30:38;;;;;;;7.28;2.05;;;;;;;1.53;100.00;100955.50;5019141;28;20145;-92
2023/03/28 03:33:09;;;;;;;8.73;1.95;;;;;;;1.13;100.00;100891.72;4993697;28;20058;-92
2023/03/28 03:35:37;;;;;;;7.20;1.80;;;;;;;1.26;100.00;100897.78;4993950;28;20428;-92
2023/03/28 03:38:03;;;;;;;6.97;1.67;;;;;;;1.33;100.00;100890.94;5025819;28;20046;-93
2023/03/28 03:40:30;;;;;;;4.35;1.60;;;;;;;1.61;100.00;100934.84;5004775;28;20050;-93
2023/03/28 03:42:57;;;;;;;3.60;1.42;;;;;;;1.33;100.00;100891.78;5009581;28;20057;-93
2023/03/28 03:45:24;;;;;;;3.92;1.50;;;;;;;1.31;100.00;100879.72;4999767;28;20096;-92
2023/03/28 03:47:51;;;;;;;3.45;1.40;;;;;;;1.40;100.00;100878.88;5012956;28;20046;-91
2023/03/28 03:50:18;;;;;;;4.25;1.63;;;;;;;1.74;100.00;100913.38;5006851;28;20532;-90
2023/03/28 03:52:45;;;;;;;4.47;1.42;;;;;;;1.66;100.00;100878.94;5004893;28;20127;-92
2023/03/28 03:55:13;;;;;;;2.60;1.50;;;;;;;1.68;100.00;100890.13;5009513;28;20046;-92
2023/03/28 03:57:40;;;;;;;7.47;2.47;;;;;;;1.93;100.00;100903.06;5002262;28;20050;-91
2023/03/28 04:00:10;;;;;;;4.55;1.50;;;;;;;1.93;100.00;100895.31;5005481;28;20392;-91
2023/03/28 04:02:38;;;;;;;5.55;1.83;;;;;;;1.85;100.00;100870.34;4994282;28;20139;-90
2023/03/28 04:05:08;;;;;;;9.30;2.10;;;;;;;1.99;100.00;100877.25;4999869;28;20515;-91
2023/03/28 04:07:35;;;;;;;4.60;1.60;;;;;;;2.16;100.00;100883.28;5018485;28;20058;-90
2023/03/28 04:10:03;;;;;;;8.35;1.60;;;;;;;2.28;100.00;100878.09;5003126;28;20044;-91
2023/03/28 04:12:30;;;;;;;4.78;1.50;;;;;;;2.07;100.00;100817.00;5012050;28;20183;-91
2023/03/28 04:14:57;;;;;;;7.57;1.73;;;;;;;2.24;100.00;100819.53;5019734;28;20072;-92
2023/03/28 04:17:28;;;;;;;5.05;2.08;;;;;;;2.31;100.00;100835.03;5007394;28;20054;-90
2023/03/28 04:19:55;;;;;;;5.40;1.85;;;;;;;2.58;100.00;100849.59;4997201;28;20085;-91
2023/03/28 04:22:22;;;;;;;7.18;1.92;;;;;;;2.84;100.00;100862.44;5023100;28;20049;-91
2023/03/28 04:24:52;;;;;;;4.50;1.77;;;;;;;2.63;100.00;100825.44;5011846;28;20046;-90
2023/03/28 04:27:19;;;;;;;4.60;2.00;;;;;;;2.64;100.00;100806.50;5003354;28;20053;-92
2023/03/28 04:29:45;;;;;;;4.38;1.80;;;;;;;2.43;100.00;100779.00;5001931;28;20472;-90
2023/03/28 04:32:12;;;;;;;6.65;1.83;;;;;;;2.88;100.00;100855.53;5009324;28;20062;-90
2023/03/28 04:34:39;;;;;;;5.88;2.08;;;;;;;3.08;100.00;100858.91;5022722;28;20108;-93
2023/03/28 04:37:08;;;;;;;6.97;1.80;;;;;;;2.82;100.00;100820.22;5009622;28;20057;-91
2023/03/28 04:39:34;;;;;;;5.40;1.92;;;;;;;2.89;100.00;100819.31;5005142;28;20050;-91
2023/03/28 04:42:04;;;;;;;6.82;2.13;;;;;;;3.20;100.00;100853.63;5004860;28;20050;-91
2023/03/28 04:44:31;;;;;;;3.97;1.58;;;;;;;2.97;100.00;100803.75;5026989;28;20108;-91
2023/03/28 04:46:58;;;;;;;10.50;3.25;;;;;;;3.30;100.00;100843.25;5013370;28;20046;-92
2023/03/28 04:49:25;;;;;;;5.75;2.03;;;;;;;3.18;100.00;100833.84;5007473;28;20053;-91
2023/03/28 04:51:52;;;;;;;4.55;1.70;;;;;;;2.90;100.00;100777.06;5008858;28;20049;-91
2023/03/28 04:54:19;;;;;;;10.90;2.28;;;;;;;3.27;100.00;100830.34;5012909;28;20385;-90
2023/03/28 04:56:49;;;;;;;7.53;1.80;;;;;;;3.20;100.00;100808.81;5011697;28;20499;-91
2023/03/28 04:59:16;;;;;;;5.32;1.80;;;;;;;3.30;100.00;100817.38;5011202;28;20121;-90
2023/03/28 05:01:49;;;;;;;7.03;2.00;;;;;;;3.48;100.00;100837.94;5005100;28;20510;-90
2023/03/28 05:04:17;;;;;;;5.47;2.25;;;;;;;3.34;100.00;100814.75;5007549;28;20038;-91
2023/03/28 05:06:45;;;;;;;6.20;1.98;;;;;;;3.59;100.00;100833.59;4992368;28;20408;-91
2023/03/28 05:09:12;;;;;;;7.88;2.17;;;;;;;3.45;100.00;100795.69;4998463;28;20057;-91
2023/03/28 05:11:39;;;;;;;9.32;2.40;;;;;;;3.68;100.00;100819.69;5003934;28;20042;-91
2023/03/28 05:14:06;;;;;;;7.38;2.17;;;;;;;3.77;100.00;100830.00;5020612;28;20049;-90
2023/03/28 05:16:33;;;;;;;5.22;1.80;;;;;;;3.57;100.00;100774.91;5014579;28;20061;-88
2023/03/28 05:19:00;;;;;;;5.10;1.73;;;;;;;3.75;100.00;100789.41;5032592;28;20049;-89
2023/03/28 05:21:27;;;;;;;5.35;1.60;;;;;;;3.91;100.00;100814.34;5019315;28;20046;-91
2023/03/28 05:23:54;;;;;;;3.95;1.48;;;;;;;3.86;100.00;100816.09;5010340;28;20058;-90
2023/03/28 05:26:21;;;;;;;5.20;2.00;;;;;;;3.79;100.00;100791.97;5013796;28;20104;-89
2023/03/28 05:28:48;;;;;;;6.20;1.92;;;;;;;3.66;100.00;100773.97;5017180;28;20498;-90
2023/03/28 05:31:16;;;;;;;8.15;2.15;;;;;;;3.77;100.00;100785.97;5025213;28;20050;-88
2023/03/28 05:33:43;;;;;;;5.75;1.95;;;;;;;3.58;100.00;100763.69;5023309;28;20109;-87
2023/03/28 05:36:11;;;;;;;5.78;1.90;;;;;;;3.96;100.00;100812.53;5016828;28;20054;-87
2023/03/28 05:38:38;;;;;;;7.30;2.05;;;;;;;3.60;100.00;100767.13;5033377;28;20058;-90
2023/03/28 05:41:05;;;;;;;6.60;2.05;;;;;;;3.71;100.00;100792.91;5008019;28;20050;-89
2023/03/28 05:43:32;;;;;;;9.75;2.42;;;;;;;3.74;100.00;100800.66;5017742;28;20053;-91
2023/03/28 05:45:59;;;;;;;8.55;2.33;;;;;;;3.67;100.00;100783.47;5033321;28;20042;-90
2023/03/28 05:48:26;;;;;;;6.80;1.98;;;;;;;3.85;100.00;100795.38;5015914;28;20842;-89
2023/03/28 05:50:52;;;;;;;5.47;1.80;;;;;;;3.93;100.00;100798.75;5014600;28;20049;-91
2023/03/28 05:53:19;;;;;;;5.75;2.10;;;;;;;3.71;100.00;100760.09;5015707;28;20511;-91
2023/03/28 05:55:48;;;;;;;5.55;1.95;;;;;;;3.91;100.00;100784.97;5031757;28;20053;-91
2023/03/28 05:58:15;;;;;;;7.65;2.30;;;;;;;4.01;100.00;100781.41;5029182;28;20484;-88
2023/03/28 06:00:43;;;;;;;5.88;1.83;;;;;;;4.21;100.00;100807.13;5026203;28;20052;-89
2023/03/28 06:03:10;;;;;;;9.35;2.58;;;;;;;4.15;100.00;100802.84;5016435;28;20119;-90
2023/03/28 06:05:42;;;;;;;7.90;2.13;;;;;;;3.96;100.00;100771.06;5015701;28;20108;-89
2023/03/28 06:08:09;;;;;;;6.45;2.00;;;;;;;4.14;100.00;100798.56;5003879;28;20053;-90
2023/03/28 06:10:36;;;;;;;11.60;3.42;;;;;;;3.79;100.00;100753.13;5004133;28;20439;-90
2023/03/28 06:13:04;;;;;;;5.93;2.03;;;;;;;3.94;100.00;100775.41;5010039;28;20145;-89
2023/03/28 06:15:31;;;;;;;10.00;2.03;;;;;;;3.94;100.00;100756.44;5026413;28;20054;-89
2023/03/28 06:17:58;;;;;;;9.23;2.00;;;;;;;3.89;100.00;100740.94;5027906;28;20123;-90
2023/03/28 06:20:28;;;;;;;7.22;1.80;;;;;;;4.01;100.00;100750.31;5031956;28;20052;-90
2023/03/28 06:22:54;;;;;;;4.93;1.77;;;;;;;4.10;100.00;100755.41;5015561;28;20060;-90
2023/03/28 06:25:21;;;;;;;7.63;2.00;;;;;;;4.22;100.00;100776.91;5023884;28;20044;-89
2023/03/28 06:27:48;;;;;;;6.43;2.08;;;;;;;4.22;100.00;100761.34;5013835;28;20104;-90
2023/03/28 06:30:15;;;;;;;7.75;2.33;;;;;;;4.29;100.00;100779.41;5026152;28;20061;-90
2023/03/28 06:32:41;;;;;;;4.93;1.90;;;;;;;4.03;100.00;100743.38;5014742;28;20053;-90
2023/03/28 06:35:08;;;;;;;9.13;2.40;;;;;;;4.14;100.00;100792.50;5005947;28;20045;-89
2023/03/28 06:37:35;;;;;;;10.52;2.20;;;;;;;4.08;100.00;100748.53;5007819;28;20046;-89
2023/03/28 06:40:02;;;;;;;9.02;2.35;;;;;;;4.30;100.00;100773.34;5010808;28;20056;-90
2023/03/28 06:42:29;;;;;;;7.10;2.17;;;;;;;4.21;100.00;100752.69;5005669;28;20053;-89
2023/03/28 06:44:56;;;;;;;10.77;2.78;;;;;;;4.27;100.00;100763.00;5017943;28;20050;-89
2023/03/28 06:47:22;;;;;;;7.97;2.50;;;;;;;4.29;100.00;100752.63;5014752;28;20072;-89
2023/03/28 06:49:49;;;;;;;6.45;2.33;;;;;;;4.17;100.00;100733.72;5010183;28;20077;-89
2023/03/28 06:52:16;;;;;;;12.23;2.85;;;;;;;3.98;100.00;100690.75;5003305;28;20058;-89
2023/03/28 06:54:43;;;;;;;7.88;2.28;;;;;;;4.19;100.00;100737.16;5014005;28;20471;-89
2023/03/28 06:57:12;;;;;;;8.75;2.17;;;;;;;4.33;100.00;100721.44;5005401;28;20062;-90
2023/03/28 06:59:38;;;;;;;10.10;2.53;;;;;;;4.13;100.00;100710.47;5013797;28;20384;-89
2023/03/28 07:02:05;;;;;;;9.60;2.92;;;;;;;4.42;100.00;100749.00;5012751;28;20054;-89
2023/03/28 07:04:33;;;;;;;8.13;3.63;;;;;;;4.42;100.00;100738.63;5021857;28;20100;-89
2023/03/28 07:07:00;;;;;;;5.53;2.15;;;;;;;4.39;100.00;100710.13;5013071;28;20152;-89
2023/03/28 07:09:27;;;;;;;11.63;3.00;;;;;;;4.45;100.00;100714.41;5002101;28;20056;-88
2023/03/28 07:11:54;;;;;;;7.60;2.30;;;;;;;4.53;100.00;100703.06;5004632;28;20058;-88
2023/03/28 07:14:21;;;;;;;8.63;2.67;;;;;;;4.79;100.00;100730.38;5009714;28;20056;-87
2023/03/28 07:16:48;;;;;;;9.75;2.30;;;;;;;4.57;100.00;100702.13;5013677;28;20385;-87
2023/03/28 07:19:14;;;;;;;11.93;2.47;;;;;;;4.66;100.00;100701.16;5008426;28;20411;-88
2023/03/28 07:21:42;;;;;;;9.38;2.40;;;;;;;4.64;100.00;100715.88;5009293;28;20443;-88
2023/03/28 07:24:09;;;;;;;7.50;2.88;;;;;;;4.54;100.00;100670.22;5012143;28;20054;-89
2023/03/28 07:26:35;;;;;;;9.20;2.65;;;;;;;4.68;100.00;100683.00;4992407;28;20055;-88
2023/03/28 07:29:02;;;;;;;5.85;2.40;;;;;;;4.94;100.00;100705.97;5002928;28;20050;-90
2023/03/28 07:31:29;;;;;;;8.18;2.72;;;;;;;5.02;100.00;100695.47;5000999;28;20053;-89
2023/03/28 07:33:56;;;;;;;7.95;2.10;;;;;;;4.85;100.00;100654.19;5011720;28;20061;-89
2023/03/28 07:36:25;;;;;;;8.30;2.38;;;;;;;5.09;100.00;100697.94;5009146;28;20676;-88
2023/03/28 07:38:52;;;;;;;8.45;2.13;;;;;;;5.12;100.00;100708.25;5001868;28;20053;-88
2023/03/28 07:41:21;;;;;;;8.23;2.55;;;;;;;5.18;100.00;100668.38;5023353;28;20050;-88
2023/03/28 07:43:48;;;;;;;9.27;2.85;;;;;;;5.65;100.00;100671.88;5009550;28;20125;-88
2023/03/28 07:46:15;;;;;;;7.85;2.10;;;;;;;6.01;100.00;100666.06;5008920;28;20469;-86
2023/03/28 07:48:44;;;;;;;8.20;2.85;;;;;;;6.03;100.00;100670.31;4999701;28;20049;-84
2023/03/28 07:51:13;;;;;;;8.65;2.38;;;;;;;5.98;100.00;100685.16;5004022;28;20049;-84
2023/03/28 07:53:40;;;;;;;10.10;2.85;;;;;;;5.80;100.00;100656.91;4998997;28;20045;-84
2023/03/28 07:56:09;;;;;;;8.55;2.40;;;;;;;5.96;100.00;100680.88;5017583;28;20046;-84
2023/03/28 07:58:38;;;;;;;9.07;2.40;;;;;;;6.07;100.00;100665.91;5025578;28;20417;-84
2023/03/28 08:01:10;;;;;;;7.22;2.42;;;;;;;5.96;100.00;100658.34;5007353;28;20047;-84
2023/03/28 08:03:38;;;;;;;10.85;2.22;;;;;;;6.15;100.00;100670.97;5019047;28;20057;-84
2023/03/28 08:06:07;;;;;;;16.77;2.90;;;;;;;6.02;100.00;100624.44;5007880;28;20100;-84
2023/03/28 08:08:50;;;;;;;6.10;2.03;;;;;;;6.38;100.00;100673.09;5010639;28;20218;-84
2023/03/28 08:11:17;;;;;;;18.05;3.38;;;;;;;6.03;100.00;100625.28;5003098;28;20046;-84
2023/03/28 08:13:44;;;;;;;5.10;1.98;;;;;;;5.95;100.00;100615.03;5013232;28;20068;-84
2023/03/28 08:16:11;;;;;;;9.68;2.40;;;;;;;6.00;100.00;100601.94;5027982;28;20045;-84
2023/03/28 08:18:37;;;;;;;10.55;3.45;;;;;;;6.26;100.00;100630.00;5012202;28;20056;-84
2023/03/28 08:21:04;;;;;;;7.47;2.45;;;;;;;6.45;100.00;100633.06;5016533;28;20073;-84
2023/03/28 08:23:31;;;;;;;8.85;2.50;;;;;;;6.58;100.00;100668.31;5021771;28;20049;-84
2023/03/28 08:26:04;;;;;;;9.25;2.65;;;;;;;6.59;100.00;100651.81;5012576;28;20452;-84
2023/03/28 08:28:33;;;;;;;13.32;2.90;;;;;;;6.75;100.00;100660.13;5011274;28;20054;-84
2023/03/28 08:31:01;;;;;;;7.72;1.90;;;;;;;6.46;100.00;100643.44;5009964;28;20046;-84
2023/03/28 08:33:28;;;;;;;6.00;2.17;;;;;;;6.63;100.00;100668.22;5005022;28;20108;-85
2023/03/28 08:35:55;;;;;;;5.10;2.13;;;;;;;6.36;100.00;100621.13;5006936;28;20042;-84
2023/03/28 08:38:23;;;;;;;10.13;2.47;;;;;;;6.47;100.00;100663.34;5008734;28;20050;-84
2023/03/28 08:41:28;;;;;;;12.18;3.03;;;;;;;6.33;100.00;100647.19;5002840;28;20042;-84
2023/03/28 08:44:28;;;;;;;10.02;2.42;;;;;;;6.36;100.00;100634.13;4990501;28;20434;-84
2023/03/28 08:47:04;;;;;;;5.25;1.90;;;;;;;6.40;100.00;100640.13;5011140;28;20473;-84
2023/03/28 08:49:42;;;;;;;9.52;2.60;;;;;;;6.00;100.00;100617.53;5025526;28;20050;-83
2023/03/28 08:52:15;;;;;;;11.32;2.70;;;;;;;6.25;100.00;100643.88;5004893;28;20050;-84
2023/03/28 08:54:41;;;;;;;11.02;2.40;;;;;;;6.57;100.00;100647.53;5021012;28;20054;-83
2023/03/28 08:57:16;;;;;;;6.90;2.42;;;;;;;6.49;100.00;100646.84;5010485;28;20054;-84
2023/03/28 09:00:30;;;;;;;9.63;2.17;;;;;;;6.46;100.00;100634.75;5009966;28;20054;-83
2023/03/28 09:02:57;;;;;;;13.65;2.40;;;;;;;6.55;100.00;100620.69;4996705;28;20056;-84
2023/03/28 09:05:43;;;;;;;7.65;2.58;;;;;;;6.54;100.00;100627.66;5010468;28;20451;-83
2023/03/28 09:08:22;;;;;;;6.72;2.20;;;;;;;6.67;100.00;100628.22;4999980;28;20050;-83
2023/03/28 09:11:00;;;;;;;12.05;2.65;;;;;;;6.38;100.00;100621.94;5002453;28;20049;-83
2023/03/28 09:14:14;;;;;;;9.75;2.67;;;;;;;6.31;100.00;100612.56;4995666;28;20062;-84
2023/03/28 09:16:56;;;;;;;8.18;2.30;;;;;;;6.29;100.00;100583.16;4983016;28;20054;-84
2023/03/28 09:19:38;;;;;;;8.88;2.40;;;;;;;6.47;100.00;100606.13;5002556;28;20049;-84
2023/03/28 09:22:32;;;;;;;7.72;2.38;;;;;;;6.51;100.00;100609.50;5005742;28;20544;-83
2023/03/28 09:25:20;;;;;;;8.32;2.78;;;;;;;6.36;100.00;100608.13;5006342;28;20049;-83
2023/03/28 09:28:27;;;;;;;10.18;4.43;;;;;;;6.52;100.00;100608.63;5005273;28;20060;-85
2023/03/28 09:30:57;;;;;;;12.63;2.67;;;;;;;6.38;100.00;100579.47;5000970;28;20045;-85
2023/03/28 09:33:29;;;;;;;15.35;3.63;;;;;;;6.38;100.00;100592.50;4995256;28;20464;-84
2023/03/28 09:35:56;;;;;;;10.07;2.95;;;;;;;6.73;100.00;100604.69;5010974;28;20419;-84
2023/03/28 09:38:32;;;;;;;9.05;2.38;;;;;;;6.66;100.00;100564.09;5011579;28;20384;-84
2023/03/28 09:41:04;;;;;;;14.20;3.47;;;;;;;6.84;100.00;100588.81;4999143;28;20787;-84
2023/03/28 09:43:38;;;;;;;11.00;3.00;;;;;;;6.77;100.00;100569.03;5001762;28;20416;-84
2023/03/28 09:46:17;;;;;;;12.80;2.80;;;;;;;6.98;100.00;100581.50;5004049;28;20046;-84
2023/03/28 09:48:44;;;;;;;7.63;2.90;;;;;;;6.83;100.00;100592.28;5009513;28;20116;-84
2023/03/28 09:51:17;;;;;;;6.78;2.80;;;;;;;6.80;100.00;100535.13;5001527;28;20516;-84
2023/03/28 09:53:43;;;;;;;12.93;2.87;;;;;;;6.87;100.00;100572.25;5005141;28;20057;-85
2023/03/28 09:56:32;;;;;;;11.57;3.63;;;;;;;7.03;100.00;100584.84;5006058;28;20639;-85
2023/03/28 09:59:01;;;;;;;10.25;3.83;;;;;;;7.07;100.00;100584.78;5003872;28;20055;-84
2023/03/28 10:01:45;;;;;;;13.30;4.60;;;;;;;7.17;100.00;100579.28;5009618;28;20420;-84
2023/03/28 10:04:38;;;;;;;11.25;4.03;;;;;;;7.07;100.00;100572.59;5003332;28;20050;-84
2023/03/28 10:07:07;;;;;;;9.65;3.28;;;;;;;7.13;100.00;100571.59;4993122;28;20066;-85
2023/03/28 10:09:46;;;;;;;8.68;2.90;;;;;;;7.07;100.00;100558.75;5000257;28;20050;-82
2023/03/28 10:12:40;;;;;;;12.32;3.70;;;;;;;7.11;100.00;100557.75;4999501;28;20640;-83
2023/03/28 10:15:42;;;;;;;9.93;3.20;;;;;;;7.15;100.00;100548.97;5011214;28;20481;-84
2023/03/28 10:18:18;;;;;;;9.77;2.50;;;;;;;6.75;100.00;100514.41;5030332;28;20714;-84
2023/03/28 10:20:47;;;;;;;11.25;3.60;;;;;;;7.09;100.00;100556.94;5029038;28;20056;-83
2023/03/28 10:23:14;;;;;;;9.70;2.83;;;;;;;6.94;100.00;100520.00;5000564;28;20069;-83
2023/03/28 10:25:44;;;;;;;9.00;3.20;;;;;;;7.16;100.00;100533.31;5017769;28;20476;-84
2023/03/28 10:28:19;;;;;;;12.15;4.65;;;;;;;7.01;100.00;100533.69;5013596;28;20443;-84
2023/03/28 10:30:56;;;;;;;15.93;3.30;;;;;;;7.23;100.00;100545.25;5005097;28;20042;-84
2023/03/28 10:33:29;;;;;;;11.70;3.50;;;;;;;7.21;100.00;100520.16;4994350;28;20097;-84
2023/03/28 10:36:09;;;;;;;12.40;2.95;;;;;;;7.33;100.00;100500.72;5008235;28;20050;-83
2023/03/28 10:38:47;;;;;;;10.85;3.45;;;;;;;7.52;100.00;100529.72;5013284;28;20054;-84
2023/03/28 10:41:22;;;;;;;11.60;3.55;;;;;;;7.37;100.00;100526.66;5004135;28;20053;-84
2023/03/28 10:43:52;;;;;;;9.23;2.53;;;;;;;7.34;100.00;100520.69;5023493;28;20455;-84
2023/03/28 10:46:20;;;;;;;11.02;3.30;;;;;;;6.92;100.00;100456.69;5008160;28;20050;-83
2023/03/28 10:49:00;;;;;;;11.35;4.45;;;;;;;7.32;100.00;100486.84;5014479;28;20137;-84
2023/03/28 10:51:30;;;;;;;8.75;2.78;;;;;;;7.52;100.00;100511.50;5001670;28;20046;-84
2023/03/28 10:54:05;;;;;;;12.70;4.03;;;;;;;7.61;100.00;100506.00;5014927;28;20050;-85
2023/03/28 10:56:56;;;;;;;12.80;3.30;;;;;;;7.66;100.00;100506.72;5006689;28;20054;-84
2023/03/28 10:59:39;;;;;;;13.00;3.20;;;;;;;7.63;100.00;100501.59;4995291;28;20042;-85
2023/03/28 11:02:06;;;;;;;7.70;2.95;;;;;;;7.66;100.00;100479.81;4999800;28;20065;-85
2023/03/28 11:04:56;;;;;;;12.43;4.20;;;;;;;7.50;100.00;100449.00;5012931;28;20141;-86
2023/03/28 11:08:00;;;;;;;8.38;3.28;;;;;;;7.54;100.00;100497.53;5012195;28;20049;-85
2023/03/28 11:10:40;;;;;;;8.95;3.03;;;;;;;7.67;100.00;100491.97;5010308;28;20042;-85
2023/03/28 11:13:22;;;;;;;9.05;2.63;;;;;;;7.81;100.00;100492.41;5008385;28;20063;-85
2023/03/28 11:15:58;;;;;;;9.68;3.15;;;;;;;7.84;100.00;100488.84;4999407;28;20050;-85
2023/03/28 11:18:52;;;;;;;8.68;4.13;;;;;;;7.59;100.00;100492.19;5011387;28;21734;-85
2023/03/28 11:21:25;;;;;;;11.63;3.30;;;;;;;7.56;100.00;100445.34;4994605;28;20050;-86
2023/03/28 11:23:55;;;;;;;12.05;4.13;;;;;;;7.79;100.00;100483.75;5006859;28;20050;-86
2023/03/28 11:26:31;;;;;;;7.88;3.50;;;;;;;7.76;100.00;100460.41;5010549;28;20042;-86
2023/03/28 11:29:07;;;;;;;9.93;3.85;;;;;;;8.01;100.00;100477.91;5010821;28;20058;-85
2023/03/28 11:31:49;;;;;;;11.80;3.42;;;;;;;7.85;100.00;100470.56;5027361;28;20049;-86
2023/03/28 11:34:20;;;;;;;9.18;3.53;;;;;;;8.14;100.00;100467.06;5021388;28;20046;-85
2023/03/28 11:37:12;;;;;;;9.30;2.80;;;;;;;8.27;100.00;100464.91;4998572;28;20046;-86
2023/03/28 11:39:53;;;;;;;13.80;4.53;;;;;;;8.07;100.00;100464.66;5008793;28;20054;-86
2023/03/28 11:42:26;;;;;;;11.52;4.13;;;;;;;7.42;100.00;100411.94;5005627;28;20404;-85
2023/03/28 11:45:01;;;;;;;13.40;4.32;;;;;;;7.47;100.00;100456.94;5005694;28;20483;-85
2023/03/28 11:47:41;;;;;;;11.65;4.10;;;;;;;7.60;100.00;100454.81;5011004;28;20049;-85
2023/03/28 11:50:17;;;;;;;11.50;3.92;;;;;;;7.65;100.00;100445.09;5006580;28;20121;-85